Time;durP1;ratioP1;P1;durP2;ratioP2;P2;SDS_P1;SDS_P2;PMS_P1;PMS_P2;Temp;Humidity;BMP_temperature;BMP_pressure;BME280_temperature;BME280_humidity;BME280_pressure;Samples;Min_cycle;Max_cycle;Signal;HPM_P1;HPM_P2
2022/03/04 00:00:44;;;;;;;24.60;9.00;;;24.10;99.90;;;;;;4990567;28;20033;-66
2022/03/04 00:03:12;;;;;;;26.75;8.65;;;23.90;99.90;;;;;;4990991;28;20470;-67
2022/03/04 00:05:40;;;;;;;9.95;2.58;;;23.80;99.90;;;;;;4995406;28;20038;-67
2022/03/04 00:08:09;;;;;;;14.70;2.10;;;23.70;99.90;;;;;;4993356;28;20026;-67
2022/03/04 00:10:37;;;;;;;283.25;39.53;;;23.60;99.90;;;;;;4993072;28;20503;-70
2022/03/04 00:13:05;;;;;;;14.40;3.28;;;23.50;99.90;;;;;;4995336;28;20546;-70
2022/03/04 00:15:32;;;;;;;6.78;1.42;;;23.20;99.90;;;;;;4999719;28;20037;-69
2022/03/04 00:18:00;;;;;;;956.55;99.07;;;23.40;99.90;;;;;;4994497;28;20030;-68
2022/03/04 00:20:27;;;;;;;42.97;14.77;;;23.70;99.90;;;;;;4998674;28;20502;-68
2022/03/04 00:22:54;;;;;;;6.22;1.42;;;23.60;99.90;;;;;;4993706;28;20017;-69
2022/03/04 00:25:22;;;;;;;10.68;2.25;;;23.40;99.90;;;;;;4995577;28;20021;-68
2022/03/04 00:27:49;;;;;;;7.97;1.13;;;23.30;99.90;;;;;;4987887;28;20419;-69
2022/03/04 00:30:17;;;;;;;10.13;1.45;;;23.20;99.90;;;;;;4998345;28;20037;-68
2022/03/04 00:32:44;;;;;;;7.70;1.00;;;23.20;99.90;;;;;;4997701;28;20038;-68
2022/03/04 00:35:13;;;;;;;9.60;1.42;;;23.00;99.90;;;;;;4999310;28;20461;-68
2022/03/04 00:37:40;;;;;;;9.77;1.38;;;23.00;99.90;;;;;;4992945;28;20419;-68
2022/03/04 00:40:09;;;;;;;8.82;1.40;;;23.10;99.90;;;;;;4996303;28;20018;-69
2022/03/04 00:42:36;;;;;;;10.65;2.60;;;23.10;99.90;;;;;;4993244;28;20034;-69
2022/03/04 00:45:04;;;;;;;12.77;2.10;;;23.30;99.90;;;;;;4992132;28;20034;-69
2022/03/04 00:47:31;;;;;;;8.05;1.95;;;23.50;99.90;;;;;;4991951;28;20022;-68
2022/03/04 00:49:59;;;;;;;13.85;2.67;;;23.50;99.90;;;;;;4996802;28;20030;-68
2022/03/04 00:52:26;;;;;;;13.63;4.10;;;23.40;99.90;;;;;;4988424;28;20022;-68
2022/03/04 00:54:53;;;;;;;18.20;4.03;;;23.40;99.90;;;;;;4990125;28;20052;-69
2022/03/04 00:57:20;;;;;;;10.02;3.10;;;23.30;99.90;;;;;;4989211;28;20380;-69
2022/03/04 00:59:48;;;;;;;8.30;1.30;;;23.20;99.90;;;;;;4992957;28;20470;-69
2022/03/04 01:02:15;;;;;;;11.52;1.50;;;23.00;99.90;;;;;;4992050;28;20129;-69
2022/03/04 01:04:42;;;;;;;12.55;2.28;;;23.20;99.90;;;;;;4988764;28;20064;-69
2022/03/04 01:07:09;;;;;;;12.18;2.00;;;23.20;99.90;;;;;;4991915;28;20093;-69
2022/03/04 01:09:37;;;;;;;10.32;2.22;;;23.10;99.90;;;;;;4992582;28;20045;-70
2022/03/04 01:12:06;;;;;;;5.55;0.82;;;23.00;99.90;;;;;;4988610;28;20057;-66
2022/03/04 01:14:33;;;;;;;7.80;0.75;;;23.00;99.90;;;;;;4991097;28;20026;-64
2022/03/04 01:17:00;;;;;;;8.10;2.85;;;22.90;99.90;;;;;;4991931;28;20383;-64
2022/03/04 01:19:27;;;;;;;15.57;2.97;;;23.00;99.90;;;;;;4992470;28;20033;-65
2022/03/04 01:21:55;;;;;;;9.73;1.40;;;23.00;99.90;;;;;;4992725;28;20077;-68
2022/03/04 01:24:22;;;;;;;8.73;1.13;;;22.90;99.90;;;;;;4988463;28;20120;-67
2022/03/04 01:26:49;;;;;;;12.32;1.92;;;23.00;99.90;;;;;;4991604;28;20046;-67
2022/03/04 01:29:16;;;;;;;11.63;1.55;;;23.30;99.90;;;;;;5001791;28;20488;-68
2022/03/04 01:31:44;;;;;;;11.27;1.83;;;23.60;99.90;;;;;;4990844;28;20542;-68
2022/03/04 01:34:11;;;;;;;7.68;1.38;;;24.00;99.90;;;;;;4991212;28;20030;-68
2022/03/04 01:36:39;;;;;;;6.40;1.00;;;24.00;99.90;;;;;;4993644;28;20050;-68
2022/03/04 01:39:07;;;;;;;7.63;1.48;;;23.70;99.90;;;;;;4992330;28;20018;-68
2022/03/04 01:41:34;;;;;;;10.55;1.35;;;23.50;99.90;;;;;;5011809;28;20076;-68
2022/03/04 01:44:01;;;;;;;9.73;2.15;;;23.50;99.90;;;;;;5011443;28;20402;-68
2022/03/04 01:46:30;;;;;;;6.57;1.50;;;23.50;99.90;;;;;;5009578;28;20032;-68
2022/03/04 01:48:58;;;;;;;10.50;1.65;;;23.50;99.90;;;;;;4996821;28;20054;-68
2022/03/04 01:51:25;;;;;;;11.05;1.85;;;23.80;99.90;;;;;;5009747;28;20041;-68
2022/03/04 01:53:53;;;;;;;5.13;1.27;;;24.20;99.90;;;;;;4993706;28;20089;-68
2022/03/04 01:56:20;;;;;;;11.43;1.30;;;24.40;99.90;;;;;;5008986;28;20081;-68
2022/03/04 01:58:47;;;;;;;5.65;1.08;;;24.50;99.90;;;;;;5013334;28;20141;-68
2022/03/04 02:01:15;;;;;;;9.93;1.20;;;24.60;99.90;;;;;;5009011;28;20037;-68
2022/03/04 02:03:43;;;;;;;15.70;1.92;;;24.50;99.90;;;;;;5012623;28;20081;-68
2022/03/04 02:06:10;;;;;;;6.25;1.40;;;24.30;99.90;;;;;;5010715;28;20037;-68
2022/03/04 02:08:37;;;;;;;7.82;1.83;;;24.20;99.90;;;;;;5012748;28;20030;-68
2022/03/04 02:11:05;;;;;;;8.68;1.00;;;23.90;99.90;;;;;;4992661;28;20026;-68
2022/03/04 02:13:32;;;;;;;9.32;1.52;;;23.80;99.90;;;;;;5008382;28;20030;-68
2022/03/04 02:15:59;;;;;;;5.93;1.30;;;23.80;99.90;;;;;;5011055;28;20041;-68
2022/03/04 02:18:27;;;;;;;5.18;1.50;;;23.90;99.90;;;;;;5012940;28;20025;-68
2022/03/04 02:20:58;;;;;;;8.23;1.02;;;24.30;99.90;;;;;;5010669;28;20504;-68
2022/03/04 02:23:25;;;;;;;5.72;0.90;;;24.60;99.90;;;;;;5011352;28;20033;-68
2022/03/04 02:25:53;;;;;;;5.18;1.05;;;24.30;99.90;;;;;;5010857;28;20037;-68
2022/03/04 02:28:21;;;;;;;6.70;1.40;;;24.20;99.90;;;;;;5005148;28;20054;-68
2022/03/04 02:30:49;;;;;;;4.82;0.63;;;24.20;99.90;;;;;;4989883;28;20364;-68
2022/03/04 02:33:16;;;;;;;5.47;1.00;;;24.50;99.90;;;;;;4990784;28;20030;-65
2022/03/04 02:35:45;;;;;;;3.40;0.88;;;24.50;99.90;;;;;;4990074;28;20113;-65
2022/03/04 02:38:12;;;;;;;4.82;0.80;;;24.10;99.90;;;;;;5002929;28;20030;-64
2022/03/04 02:40:40;;;;;;;7.70;0.88;;;24.10;99.90;;;;;;4986042;28;20085;-65
2022/03/04 02:43:07;;;;;;;6.97;1.95;;;24.30;99.90;;;;;;4988806;28;20497;-64
2022/03/04 02:45:35;;;;;;;5.75;0.70;;;24.40;99.90;;;;;;4988151;28;20044;-65
2022/03/04 02:48:02;;;;;;;5.18;1.05;;;24.50;99.90;;;;;;4987905;28;20034;-65
2022/03/04 02:50:29;;;;;;;2.58;1.08;;;24.60;99.90;;;;;;4991546;28;20027;-65
2022/03/04 02:52:57;;;;;;;5.82;1.45;;;24.60;99.90;;;;;;4991826;28;20121;-65
2022/03/04 02:55:24;;;;;;;6.15;0.88;;;24.60;99.90;;;;;;5001998;28;20117;-65
2022/03/04 02:57:51;;;;;;;5.85;0.98;;;24.70;99.90;;;;;;4993268;28;20162;-65
2022/03/04 03:00:19;;;;;;;4.38;1.00;;;25.00;99.90;;;;;;4995640;28;20030;-65
2022/03/04 03:02:46;;;;;;;5.35;1.13;;;25.00;99.90;;;;;;4988220;28;20022;-65
2022/03/04 03:05:13;;;;;;;5.15;0.70;;;25.00;99.90;;;;;;4987832;28;20026;-65
2022/03/04 03:07:41;;;;;;;6.88;0.90;;;24.90;99.90;;;;;;4986134;28;20030;-64
2022/03/04 03:10:11;;;;;;;5.25;0.90;;;24.80;99.90;;;;;;5002816;28;20084;-65
2022/03/04 03:12:42;;;;;;;3.47;0.60;;;24.70;99.90;;;;;;4992075;28;20040;-65
2022/03/04 03:15:11;;;;;;;6.47;0.60;;;24.40;99.90;;;;;;4996805;28;20030;-65
2022/03/04 03:17:39;;;;;;;3.15;0.60;;;24.10;99.90;;;;;;4995478;28;20031;-65
2022/03/04 03:20:07;;;;;;;7.53;1.05;;;24.10;99.90;;;;;;4994404;28;20018;-65
2022/03/04 03:22:35;;;;;;;4.45;0.70;;;24.10;99.90;;;;;;4985612;28;20030;-65
2022/03/04 03:25:04;;;;;;;2.95;0.73;;;24.20;99.90;;;;;;4995024;28;20058;-65
2022/03/04 03:27:31;;;;;;;3.53;1.20;;;24.60;99.90;;;;;;4992418;28;20093;-66
2022/03/04 03:29:58;;;;;;;9.40;0.90;;;24.80;99.90;;;;;;4995755;28;20022;-66
2022/03/04 03:32:26;;;;;;;10.02;1.38;;;25.00;99.90;;;;;;4985568;28;20085;-65
2022/03/04 03:34:53;;;;;;;3.30;1.00;;;25.20;99.90;;;;;;4993655;28;20038;-65
2022/03/04 03:37:20;;;;;;;13.70;4.78;;;25.20;99.90;;;;;;4993511;28;20050;-66
2022/03/04 03:39:48;;;;;;;4.88;0.88;;;25.30;99.90;;;;;;4998287;28;20049;-65
2022/03/04 03:42:15;;;;;;;5.63;0.60;;;25.20;99.90;;;;;;4979824;28;20108;-66
2022/03/04 03:44:43;;;;;;;9.70;1.55;;;25.20;99.90;;;;;;4992110;28;20034;-65
2022/03/04 03:47:10;;;;;;;10.27;1.75;;;25.10;99.90;;;;;;4992882;28;20022;-65
2022/03/04 03:49:38;;;;;;;8.05;1.52;;;25.00;99.90;;;;;;4991349;28;20026;-65
2022/03/04 03:52:06;;;;;;;6.53;1.42;;;24.80;99.90;;;;;;4990768;28;20034;-65
2022/03/04 03:54:34;;;;;;;4.40;1.70;;;24.60;99.90;;;;;;4987641;28;20525;-66
2022/03/04 03:57:01;;;;;;;6.28;1.92;;;24.40;99.90;;;;;;4998535;28;20037;-65
2022/03/04 03:59:28;;;;;;;5.70;1.40;;;24.00;99.90;;;;;;5000818;28;20125;-65
2022/03/04 04:01:56;;;;;;;7.35;1.00;;;23.70;99.90;;;;;;4989041;28;20018;-65
2022/03/04 04:04:23;;;;;;;5.55;1.00;;;23.50;99.90;;;;;;4988488;28;20824;-65
2022/03/04 04:06:51;;;;;;;6.03;1.55;;;23.40;99.90;;;;;;4980598;28;20510;-65
2022/03/04 04:09:18;;;;;;;12.48;1.30;;;23.50;99.90;;;;;;4999481;28;20144;-65
2022/03/04 04:11:45;;;;;;;5.20;1.25;;;23.80;99.90;;;;;;4991023;28;20046;-65
2022/03/04 04:14:13;;;;;;;8.07;1.20;;;23.90;99.90;;;;;;4997464;28;20033;-65
2022/03/04 04:16:40;;;;;;;7.13;0.98;;;24.00;99.90;;;;;;5004460;28;20113;-65
2022/03/04 04:19:07;;;;;;;8.85;1.40;;;23.90;99.90;;;;;;5000236;28;20044;-65
2022/03/04 04:21:34;;;;;;;7.00;1.42;;;23.90;99.90;;;;;;4991180;28;20100;-65
2022/03/04 04:24:02;;;;;;;8.40;0.93;;;23.90;99.90;;;;;;4990969;28;20057;-65
2022/03/04 04:26:29;;;;;;;7.05;1.23;;;24.20;99.90;;;;;;4994855;28;20038;-65
2022/03/04 04:28:57;;;;;;;10.13;1.48;;;24.40;99.90;;;;;;4990357;28;20478;-65
2022/03/04 04:31:25;;;;;;;5.88;1.70;;;24.70;99.90;;;;;;4991795;28;20030;-65
2022/03/04 04:33:52;;;;;;;9.10;1.33;;;24.60;99.90;;;;;;4992838;28;20038;-65
2022/03/04 04:36:20;;;;;;;4.65;0.80;;;24.60;99.90;;;;;;4991119;28;20456;-65
2022/03/04 04:38:47;;;;;;;4.82;1.00;;;24.50;99.90;;;;;;4992383;28;20040;-65
2022/03/04 04:41:14;;;;;;;7.50;0.60;;;24.50;99.90;;;;;;5000683;28;20023;-65
2022/03/04 04:43:42;;;;;;;7.18;0.88;;;24.50;99.90;;;;;;4993903;28;20394;-65
2022/03/04 04:46:09;;;;;;;3.97;0.88;;;24.40;99.90;;;;;;4989988;28;20538;-65
2022/03/04 04:48:37;;;;;;;9.38;1.25;;;24.20;99.90;;;;;;4989830;28;20471;-65
2022/03/04 04:51:05;;;;;;;8.45;2.03;;;24.00;99.90;;;;;;4989838;28;20030;-65
2022/03/04 04:53:33;;;;;;;5.10;0.85;;;23.80;99.90;;;;;;4989382;28;20027;-65
2022/03/04 04:56:00;;;;;;;5.13;1.00;;;23.70;99.90;;;;;;4994256;28;20405;-65
2022/03/04 04:58:29;;;;;;;4.75;1.00;;;23.80;99.90;;;;;;4995541;28;20117;-65
2022/03/04 05:00:56;;;;;;;6.10;0.82;;;23.90;99.90;;;;;;4993750;28;20027;-65
2022/03/04 05:03:28;;;;;;;11.73;1.90;;;24.20;99.90;;;;;;4990762;28;20598;-65
2022/03/04 05:05:56;;;;;;;13.82;1.63;;;24.40;99.90;;;;;;4989030;28;20036;-65
2022/03/04 05:08:29;;;;;;;6.65;1.67;;;24.50;99.90;;;;;;4991946;28;20022;-65
2022/03/04 05:11:00;;;;;;;11.82;1.98;;;24.40;99.90;;;;;;4992353;28;20089;-65
2022/03/04 05:13:27;;;;;;;11.82;3.45;;;24.40;99.90;;;;;;4986571;28;20054;-65
2022/03/04 05:15:55;;;;;;;6.95;1.63;;;24.40;99.90;;;;;;4990281;28;20030;-66
2022/03/04 05:18:22;;;;;;;7.55;1.30;;;24.50;99.90;;;;;;4991694;28;20026;-65
2022/03/04 05:20:49;;;;;;;7.30;1.20;;;24.40;99.90;;;;;;4988083;28;20506;-66
2022/03/04 05:23:58;;;;;;;9.20;1.70;;;24.30;99.90;;;;;;4981913;28;20030;-66
2022/03/04 05:26:04;;;;;;;4.30;0.85;;;24.10;99.90;;;;;;4990567;28;20105;-66
2022/03/04 05:28:31;;;;;;;8.82;1.40;;;24.00;99.90;;;;;;4992834;28;20052;-66
2022/03/04 05:30:58;;;;;;;9.68;1.63;;;23.90;99.90;;;;;;4990376;28;20042;-66
2022/03/04 05:33:25;;;;;;;9.48;1.58;;;23.70;99.90;;;;;;4991300;28;20038;-66
2022/03/04 05:35:53;;;;;;;11.40;2.58;;;23.50;99.90;;;;;;4977873;28;20031;-66
2022/03/04 05:38:20;;;;;;;10.25;2.13;;;23.50;99.90;;;;;;4989240;28;20491;-67
2022/03/04 05:40:47;;;;;;;11.13;2.05;;;23.50;99.90;;;;;;4992472;28;20029;-67
2022/03/04 05:43:14;;;;;;;10.05;1.73;;;23.40;99.90;;;;;;4991937;28;20021;-67
2022/03/04 05:45:42;;;;;;;11.45;2.80;;;23.40;99.90;;;;;;4990732;28;20387;-67
2022/03/04 05:48:09;;;;;;;16.85;3.03;;;23.40;99.90;;;;;;4996407;28;20378;-65
2022/03/04 05:50:36;;;;;;;14.88;2.38;;;23.40;99.90;;;;;;5001484;28;20025;-64
2022/03/04 05:53:03;;;;;;;11.63;1.90;;;23.40;99.90;;;;;;4988183;28;20027;-65
2022/03/04 05:55:31;;;;;;;8.82;1.48;;;23.20;99.90;;;;;;4992787;28;20034;-65
2022/03/04 05:57:58;;;;;;;6.38;1.15;;;23.20;99.90;;;;;;4987073;28;20502;-65
2022/03/04 06:00:27;;;;;;;7.13;1.23;;;23.10;99.90;;;;;;4995101;28;20511;-65
2022/03/04 06:02:54;;;;;;;9.57;2.17;;;23.10;99.90;;;;;;4988049;28;20050;-65
2022/03/04 06:05:21;;;;;;;9.85;1.83;;;23.20;99.90;;;;;;4992228;28;20363;-65
2022/03/04 06:07:49;;;;;;;6.38;1.52;;;23.10;99.90;;;;;;4990322;28;20483;-65
2022/03/04 06:10:16;;;;;;;10.35;1.75;;;23.10;99.90;;;;;;4987907;28;20031;-64
2022/03/04 06:12:43;;;;;;;9.48;1.58;;;23.10;99.90;;;;;;4987357;28;20042;-65
2022/03/04 06:15:10;;;;;;;7.93;1.98;;;23.10;99.90;;;;;;4990696;28;20026;-65
2022/03/04 06:17:39;;;;;;;6.90;2.15;;;23.10;99.90;;;;;;4997911;28;20032;-65
2022/03/04 06:20:06;;;;;;;9.73;1.70;;;23.00;99.90;;;;;;4989218;28;20091;-65
2022/03/04 06:22:34;;;;;;;9.40;2.40;;;22.90;99.90;;;;;;5006125;28;20030;-65
2022/03/04 06:25:01;;;;;;;7.57;1.70;;;22.90;99.90;;;;;;4995642;28;20034;-65
2022/03/04 06:27:28;;;;;;;8.82;2.63;;;22.90;99.90;;;;;;5010844;28;20038;-65
2022/03/04 06:29:56;;;;;;;6.18;1.30;;;22.70;99.90;;;;;;5007553;28;20104;-65
2022/03/04 06:32:23;;;;;;;5.32;1.40;;;22.70;99.90;;;;;;4996778;28;20442;-65
2022/03/04 06:34:50;;;;;;;7.40;1.70;;;22.70;99.90;;;;;;5005731;28;20029;-65
2022/03/04 06:37:17;;;;;;;7.07;1.70;;;22.80;99.90;;;;;;5006964;28;20029;-65
2022/03/04 06:39:45;;;;;;;9.35;2.10;;;22.80;99.90;;;;;;4997797;28;20121;-65
2022/03/04 06:42:12;;;;;;;13.60;2.67;;;22.80;99.90;;;;;;4992844;28;20510;-65
2022/03/04 06:44:39;;;;;;;10.98;3.17;;;22.90;99.90;;;;;;5007666;28;20036;-65
2022/03/04 06:47:07;;;;;;;10.63;2.38;;;22.90;99.90;;;;;;4987525;28;20113;-65
2022/03/04 06:49:35;;;;;;;6.95;2.58;;;22.90;99.90;;;;;;4996795;28;20026;-65
2022/03/04 06:52:03;;;;;;;9.20;2.92;;;22.90;99.90;;;;;;5028399;22;20048;-90
2022/03/04 06:54:32;;;;;;;7.72;3.63;;;22.80;99.90;;;;;;5003068;28;20045;-86
2022/03/04 06:57:00;;;;;;;11.70;3.28;;;22.80;99.90;;;;;;5032168;28;20022;-86
2022/03/04 06:59:27;;;;;;;8.07;3.15;;;22.80;99.90;;;;;;5035186;28;20025;-86
2022/03/04 07:02:00;;;;;;;6.65;2.47;;;22.90;99.90;;;;;;5035180;28;20037;-89
2022/03/04 07:04:27;;;;;;;12.18;2.72;;;22.90;99.90;;;;;;5034548;28;20025;-91
2022/03/04 07:07:21;;;;;;;13.98;3.08;;;22.90;99.90;;;;;;5029968;28;20029;-95
2022/03/04 07:13:01;;;;;;;13.07;2.90;;;22.90;99.90;;;;;;5031427;28;20048;-93
2022/03/04 07:15:32;;;;;;;11.88;3.20;;;22.90;99.90;;;;;;5031134;28;20482;-88
2022/03/04 07:18:02;;;;;;;10.43;2.30;;;22.80;99.90;;;;;;5071892;22;20120;-88
2022/03/04 07:20:30;;;;;;;13.70;3.35;;;22.70;99.90;;;;;;5030117;28;20430;-88
2022/03/04 07:23:14;;;;;;;9.90;2.55;;;22.70;99.90;;;;;;5022341;28;20021;-91
2022/03/04 07:25:41;;;;;;;17.00;3.97;;;22.60;99.90;;;;;;5024088;28;20024;-90
2022/03/04 07:28:09;;;;;;;11.27;2.92;;;22.60;99.90;;;;;;5044443;28;20108;-86
2022/03/04 07:30:36;;;;;;;12.27;2.60;;;22.60;99.90;;;;;;5027668;28;20025;-86
2022/03/04 07:33:03;;;;;;;9.57;2.33;;;22.60;99.90;;;;;;5048845;28;20045;-93
2022/03/04 07:35:31;;;;;;;9.90;2.85;;;22.50;99.90;;;;;;5051018;28;20033;-88
2022/03/04 07:37:58;;;;;;;17.67;4.95;;;22.50;99.90;;;;;;5027919;28;20027;-87
2022/03/04 07:40:26;;;;;;;14.25;3.63;;;22.50;99.90;;;;;;5042304;28;20026;-88
2022/03/04 07:42:53;;;;;;;17.83;4.32;;;22.50;99.90;;;;;;5041173;28;20028;-87
2022/03/04 07:45:21;;;;;;;15.57;4.40;;;22.50;99.90;;;;;;5019748;28;20112;-90
2022/03/04 07:51:25;;;;;;;8.60;4.70;;;22.50;99.90;;;;;;4939674;28;20043;-95
2022/03/04 07:54:18;;;;;;;15.48;3.97;;;22.50;99.90;;;;;;4980751;28;20060;-93
2022/03/04 07:57:18;;;;;;;18.10;4.05;;;22.50;99.90;;;;;;5029176;28;20036;-91
2022/03/04 08:00:29;;;;;;;;;;;;;;;;;;;;;
2022/03/04 08:03:01;;;;;;;17.65;4.93;;;22.40;99.90;;;;;;5029222;28;20059;-89
2022/03/04 08:11:58;;;;;;;24.65;5.78;;;22.40;99.90;;;;;;5511218;23;20385;-88
2022/03/04 08:14:25;;;;;;;23.27;6.07;;;22.50;99.90;;;;;;5029082;28;20108;-87
2022/03/04 08:16:55;;;;;;;26.48;5.53;;;22.50;99.90;;;;;;5040905;28;20474;-90
2022/03/04 08:28:44;;;;;;;16.98;4.45;;;22.40;99.90;;;;;;4964947;28;20050;-92
2022/03/04 08:31:40;;;;;;;;;;;;;;;;;;;;;
2022/03/04 08:35:06;;;;;;;;;;;;;;;;;;;;;
2022/03/04 08:37:34;;;;;;;13.77;3.60;;;22.40;99.90;;;;;;5040457;28;20031;-90
2022/03/04 08:40:07;;;;;;;18.25;7.07;;;22.40;99.90;;;;;;5023076;28;20021;-92
2022/03/04 08:42:42;;;;;;;13.02;4.80;;;22.40;99.90;;;;;;5044246;28;20395;-89
2022/03/04 08:45:11;;;;;;;17.23;3.25;;;22.40;99.90;;;;;;5019187;28;20480;-90
2022/03/04 08:47:43;;;;;;;12.18;2.83;;;22.40;99.90;;;;;;5020042;28;20107;-92
2022/03/04 08:50:17;;;;;;;13.93;2.78;;;22.40;99.90;;;;;;5026376;28;20030;-96
2022/03/04 08:52:47;;;;;;;12.80;3.35;;;22.30;99.90;;;;;;5022005;28;20377;-93
2022/03/04 08:55:17;;;;;;;13.35;3.05;;;22.30;99.90;;;;;;5038904;28;20032;-89
2022/03/04 08:57:54;;;;;;;17.50;4.45;;;22.30;99.90;;;;;;5034507;28;20037;-91
2022/03/04 09:00:22;;;;;;;13.95;3.72;;;22.30;99.90;;;;;;5033147;28;20017;-90
2022/03/04 09:02:55;;;;;;;14.50;3.78;;;22.30;99.90;;;;;;5017501;28;20392;-89
2022/03/04 09:05:23;;;;;;;17.33;2.97;;;22.30;99.90;;;;;;5019537;28;20460;-87
2022/03/04 09:07:50;;;;;;;14.00;2.90;;;22.20;99.90;;;;;;5014705;28;20068;-88
2022/03/04 09:10:18;;;;;;;20.45;3.78;;;22.20;99.90;;;;;;5016146;28;20431;-87
2022/03/04 09:12:45;;;;;;;14.07;2.58;;;22.20;99.90;;;;;;5028066;28;20538;-87
2022/03/04 09:15:15;;;;;;;17.60;3.53;;;22.30;99.90;;;;;;5031752;28;20112;-88
2022/03/04 09:17:43;;;;;;;16.98;3.25;;;22.20;99.90;;;;;;5035597;28;20016;-87
2022/03/04 09:20:11;;;;;;;13.75;2.60;;;22.20;99.90;;;;;;5026474;28;20026;-88
2022/03/04 09:22:39;;;;;;;12.38;3.53;;;22.20;99.90;;;;;;5039348;28;20071;-88
2022/03/04 09:25:10;;;;;;;10.10;2.40;;;22.20;99.90;;;;;;5047892;28;20049;-87
2022/03/04 09:27:37;;;;;;;14.55;2.60;;;22.20;99.90;;;;;;5020534;28;20027;-88
2022/03/04 09:30:11;;;;;;;17.63;3.00;;;22.10;99.90;;;;;;5024800;28;20032;-88
2022/03/04 09:32:42;;;;;;;;;;;22.10;99.90;;;;;;5028326;28;20062;-89
2022/03/04 09:35:09;;;;;;;11.40;3.33;;;22.10;99.90;;;;;;5043593;28;19909;-88
2022/03/04 09:37:37;;;;;;;13.65;3.38;;;22.10;99.90;;;;;;5010857;28;20031;-88
2022/03/04 09:40:09;;;;;;;14.93;3.88;;;22.10;99.90;;;;;;5027082;28;20048;-88
2022/03/04 09:42:37;;;;;;;18.52;5.82;;;22.10;99.90;;;;;;5026856;28;20042;-88
2022/03/04 09:45:05;;;;;;;16.20;4.00;;;22.10;99.90;;;;;;5051246;28;20127;-88
2022/03/04 09:47:43;;;;;;;11.70;3.00;;;22.10;99.90;;;;;;5016021;28;20032;-89
2022/03/04 09:50:13;;;;;;;16.85;3.38;;;22.10;99.90;;;;;;5025666;28;20479;-88
2022/03/04 09:52:46;;;;;;;13.02;2.90;;;22.10;99.90;;;;;;5017964;28;20037;-89
2022/03/04 09:55:19;;;;;;;13.77;2.92;;;22.10;99.90;;;;;;5030561;28;20139;-89
2022/03/04 09:57:47;;;;;;;10.20;1.80;;;22.10;99.90;;;;;;5037476;28;20029;-88
2022/03/04 10:00:15;;;;;;;9.15;2.30;;;22.10;99.90;;;;;;5037931;28;20032;-87
2022/03/04 10:02:42;;;;;;;8.73;2.53;;;22.10;99.90;;;;;;5018236;28;20078;-88
2022/03/04 10:05:30;;;;;;;10.68;2.40;;;22.10;99.90;;;;;;5036780;28;20042;-89
2022/03/04 10:08:00;;;;;;;8.98;1.85;;;22.10;99.90;;;;;;5025369;28;20021;-88
2022/03/04 10:10:31;;;;;;;8.02;2.17;;;22.10;99.90;;;;;;4998627;28;20033;-87
2022/03/04 10:13:02;;;;;;;9.82;2.47;;;22.10;99.90;;;;;;5029208;28;20495;-88
2022/03/04 10:15:29;;;;;;;7.03;2.10;;;22.10;99.90;;;;;;5024775;28;20037;-90
2022/03/04 10:18:04;;;;;;;9.77;2.53;;;22.00;99.90;;;;;;5044330;28;20033;-88
2022/03/04 10:20:39;;;;;;;9.23;2.53;;;22.00;99.90;;;;;;5040803;28;20384;-88
2022/03/04 10:23:22;;;;;;;11.43;2.05;;;22.10;99.90;;;;;;5014810;28;20040;-87
2022/03/04 10:25:56;;;;;;;21.13;3.80;;;22.10;99.90;;;;;;5036660;28;20041;-88
2022/03/04 10:28:26;;;;;;;12.40;2.83;;;22.00;99.90;;;;;;5041672;28;20109;-88
2022/03/04 10:30:56;;;;;;;10.38;2.33;;;22.00;99.90;;;;;;5024667;28;20034;-89
2022/03/04 10:33:30;;;;;;;13.57;3.33;;;22.00;99.90;;;;;;5028808;28;20053;-88
2022/03/04 10:36:10;;;;;;;;;;;22.00;99.90;;;;;;5026824;28;20112;-89
2022/03/04 10:38:39;;;;;;;12.25;2.10;;;22.00;99.90;;;;;;5043825;28;19905;-88
2022/03/04 10:41:33;;;;;;;13.07;2.90;;;22.00;99.90;;;;;;5024456;28;20507;-89
2022/03/04 10:44:01;;;;;;;12.85;3.38;;;22.00;99.90;;;;;;5009883;28;20079;-89
2022/03/04 10:46:56;;;;;;;9.57;2.17;;;22.00;99.90;;;;;;5017143;28;20071;-90
2022/03/04 10:49:30;;;;;;;13.40;2.63;;;22.00;99.90;;;;;;5017162;28;20044;-90
2022/03/04 10:52:15;;;;;;;12.20;2.75;;;22.00;99.90;;;;;;5041553;28;20044;-89
2022/03/04 10:54:51;;;;;;;14.93;3.35;;;22.00;99.90;;;;;;5008121;28;20399;-89
2022/03/04 10:57:20;;;;;;;14.50;2.78;;;22.00;99.90;;;;;;5034551;28;20364;-88
2022/03/04 10:59:58;;;;;;;10.70;2.10;;;22.00;99.90;;;;;;5022876;28;20059;-88
2022/03/04 11:02:48;;;;;;;19.65;3.25;;;22.00;99.90;;;;;;5027751;28;20037;-89
2022/03/04 11:05:29;;;;;;;8.25;2.78;;;21.90;99.90;;;;;;5018348;28;20472;-88
2022/03/04 11:07:57;;;;;;;17.13;3.78;;;21.90;99.90;;;;;;5047800;28;20029;-89
2022/03/04 11:10:25;;;;;;;10.57;2.35;;;21.90;99.90;;;;;;5044682;28;20025;-88
2022/03/04 11:13:08;;;;;;;11.65;3.03;;;21.90;99.90;;;;;;5019606;28;20395;-89
2022/03/04 11:16:03;;;;;;;11.90;3.08;;;21.90;99.90;;;;;;5034942;28;20115;-91
2022/03/04 11:18:41;;;;;;;;;;;21.90;99.90;;;;;;5015530;28;20044;-90
2022/03/04 11:21:20;;;;;;;14.90;3.20;;;21.90;99.90;;;;;;5033730;28;19905;-89
2022/03/04 11:23:48;;;;;;;8.10;2.05;;;21.90;99.90;;;;;;5004370;28;20079;-87
2022/03/04 11:26:26;;;;;;;15.20;3.17;;;22.00;99.90;;;;;;5025455;28;20049;-90
2022/03/04 11:29:35;;;;;;;9.32;2.15;;;22.00;99.90;;;;;;5014750;28;20484;-91
2022/03/04 11:32:09;;;;;;;13.68;3.15;;;22.10;99.90;;;;;;5025827;28;20184;-90
2022/03/04 11:34:44;;;;;;;13.52;2.63;;;22.10;99.90;;;;;;5016193;28;20040;-89
2022/03/04 11:37:22;;;;;;;8.60;2.13;;;22.00;99.90;;;;;;5016136;28;20029;-88
2022/03/04 11:46:36;;;;;;;18.02;2.95;;;22.00;99.90;;;;;;5055029;28;20505;-89
2022/03/04 11:49:35;;;;;;;18.08;3.78;;;22.00;99.90;;;;;;5053993;28;20024;-90
2022/03/04 11:52:25;;;;;;;17.25;2.88;;;22.00;99.90;;;;;;5033476;28;20036;-89
2022/03/04 11:58:13;;;;;;;10.20;2.58;;;21.90;99.90;;;;;;5028514;28;20041;-90
2022/03/04 12:00:44;;;;;;;19.95;3.00;;;22.00;99.90;;;;;;5034362;28;20029;-88
2022/03/04 12:03:19;;;;;;;12.65;2.50;;;21.90;99.90;;;;;;5032152;28;20029;-90
2022/03/04 12:05:51;;;;;;;11.70;2.40;;;21.90;99.90;;;;;;5032431;28;20476;-88
2022/03/04 12:12:24;;;;;;;11.70;3.05;;;22.00;99.90;;;;;;5025354;28;20045;-90
2022/03/04 12:15:31;;;;;;;15.20;3.13;;;22.00;99.90;;;;;;5005736;28;20079;-90
2022/03/04 12:18:33;;;;;;;;;;;;;;;;;;;;;
2022/03/04 12:22:00;;;;;;;;;;;;;;;;;;;;;
2022/03/04 12:32:02;;;;;;;;;;;;;;;;;;;;;
2022/03/04 12:38:41;;;;;;;;;;;;;;;;;;;;;
2022/03/04 13:09:42;;;;;;;12.30;3.58;;;21.80;99.90;;;;;;5004568;28;20072;-90
2022/03/04 13:12:44;;;;;;;;;;;;;;;;;;;;;
2022/03/04 13:15:31;;;;;;;;;;;;;;;;;;;;;
2022/03/04 13:18:23;;;;;;;;;;;;;;;;;;;;;
2022/03/04 13:21:12;;;;;;;16.05;4.20;;;21.90;99.90;;;;;;4999643;28;20037;-90
2022/03/04 13:27:37;;;;;;;16.27;3.95;;;21.90;99.90;;;;;;4994191;28;20564;-90
2022/03/04 13:30:10;;;;;;;16.15;4.32;;;21.80;99.90;;;;;;5005176;28;20038;-90
2022/03/04 13:33:00;;;;;;;17.77;4.13;;;21.90;99.90;;;;;;5012297;28;20042;-90
2022/03/04 13:35:58;;;;;;;14.57;4.60;;;21.90;99.90;;;;;;4989356;28;20335;-90
2022/03/04 13:38:54;;;;;;;11.27;4.18;;;21.90;99.90;;;;;;5007093;28;20087;-90
2022/03/04 13:41:53;;;;;;;19.27;4.85;;;21.90;99.90;;;;;;5011373;28;20136;-90
2022/03/04 13:45:00;;;;;;;19.15;5.72;;;21.90;99.90;;;;;;4995934;28;20091;-88
2022/03/04 13:47:47;;;;;;;24.38;6.20;;;21.90;99.90;;;;;;4992341;28;20034;-91
2022/03/04 13:50:28;;;;;;;30.02;6.55;;;21.80;99.90;;;;;;4995824;28;20394;-90
2022/03/04 13:53:22;;;;;;;;;;;;;;;;;;;;;
2022/03/04 13:56:10;;;;;;;23.92;5.35;;;21.90;99.90;;;;;;5013098;28;20030;-90
2022/03/04 13:58:43;;;;;;;22.60;4.90;;;21.90;99.90;;;;;;4995484;28;20103;-90
2022/03/04 14:01:51;;;;;;;31.27;7.27;;;21.90;99.90;;;;;;4980712;28;20400;-90
2022/03/04 14:04:40;;;;;;;28.45;6.15;;;21.80;99.90;;;;;;5001100;28;20214;-90
2022/03/04 14:07:16;;;;;;;21.88;5.20;;;21.80;99.90;;;;;;4993508;28;20408;-90
2022/03/04 14:10:06;;;;;;;;;;;;;;;;;;;;;
2022/03/04 14:12:47;;;;;;;;;;;;;;;;;;;;;
2022/03/04 14:15:18;;;;;;;19.13;5.20;;;21.90;99.90;;;;;;4992749;28;20050;-90
2022/03/04 14:17:58;;;;;;;20.15;5.55;;;21.90;99.90;;;;;;4972455;28;20493;-89
2022/03/04 14:20:49;;;;;;;18.80;3.88;;;21.90;99.90;;;;;;4965487;28;20492;-89
2022/03/04 14:23:21;;;;;;;21.45;5.38;;;21.90;99.90;;;;;;4972425;28;20137;-90
2022/03/04 14:26:06;;;;;;;20.63;5.10;;;21.90;99.90;;;;;;4975455;28;20117;-90
2022/03/04 14:28:35;;;;;;;17.90;4.90;;;21.90;99.90;;;;;;4972504;28;20037;-89
2022/03/04 14:31:06;;;;;;;15.60;4.55;;;21.90;99.90;;;;;;4991961;28;20483;-89
2022/03/04 14:33:59;;;;;;;22.70;4.45;;;21.80;99.90;;;;;;4975296;28;20504;-89
2022/03/04 14:36:55;;;;;;;18.05;3.67;;;21.80;99.90;;;;;;4977035;28;20042;-89
2022/03/04 14:39:26;;;;;;;24.77;5.10;;;21.80;99.90;;;;;;4978425;28;20073;-90
2022/03/04 14:41:59;;;;;;;20.85;5.30;;;21.80;99.90;;;;;;4991537;28;20500;-90
2022/03/04 14:44:32;;;;;;;13.75;3.38;;;21.80;99.90;;;;;;4975045;28;20050;-89